RYR2198 GMTT-LFBO
Flight info
| Callsign | RYR2198 |
|---|---|
| Flight time | N/A |
| Altitude | 19000 |
| Route | NARMI N726 TTN/N0336F180 B11 GALTO/N0435F360 N869 NASOS L27 YAKXU N871 TOPTU |
| Aircraft | B738/M-SDE2E3FGHIRWXY/LB1 |
Departure
| Time | 2026-05-05 19:42 |
|---|---|
| Airport | Tangier Ibn Battuta Airport (GMTT) |
Arrival
| Time | N/A |
|---|---|
| Airport | Toulouse-Blagnac Airport (LFBO) |
| Time | Latitude | Longitude | Altitude | Speed | Heading |
|---|---|---|---|---|---|
| 2026-05-05 19:11 | 35.72521 | -5.91250 | 59 ft | 0 kts | 355° |
| 2026-05-05 19:28 | 35.72520 | -5.91249 | 59 ft | 2 kts | 355° |
| 2026-05-05 19:28 | 35.72502 | -5.91248 | 55 ft | 3 kts | 355° |
| 2026-05-05 19:29 | 35.72483 | -5.91246 | 55 ft | 3 kts | 355° |
| 2026-05-05 19:29 | 35.72465 | -5.91248 | 53 ft | 3 kts | 43° |
| 2026-05-05 19:29 | 35.72456 | -5.91267 | 51 ft | 3 kts | 46° |
| 2026-05-05 19:29 | 35.72440 | -5.91276 | 56 ft | 3 kts | 341° |
| 2026-05-05 19:30 | 35.72426 | -5.91262 | 50 ft | 3 kts | 284° |
| 2026-05-05 19:30 | 35.72424 | -5.91241 | 55 ft | 2 kts | 265° |
| 2026-05-05 19:30 | 35.72427 | -5.91220 | 52 ft | 3 kts | 261° |
| 2026-05-05 19:30 | 35.72430 | -5.91200 | 54 ft | 3 kts | 226° |
| 2026-05-05 19:31 | 35.72446 | -5.91191 | 50 ft | 3 kts | 172° |
| 2026-05-05 19:31 | 35.72459 | -5.91190 | 53 ft | 0 kts | 221° |
| 2026-05-05 19:34 | 35.72454 | -5.91198 | 52 ft | 8 kts | 233° |
| 2026-05-05 19:34 | 35.72436 | -5.91381 | 56 ft | 35 kts | 266° |
| 2026-05-05 19:35 | 35.72433 | -5.91564 | 57 ft | 37 kts | 282° |
| 2026-05-05 19:35 | 35.72523 | -5.91681 | 57 ft | 26 kts | 348° |
| 2026-05-05 19:35 | 35.72630 | -5.91699 | 59 ft | 25 kts | 358° |
| 2026-05-05 19:35 | 35.72789 | -5.91711 | 59 ft | 23 kts | 355° |
| 2026-05-05 19:36 | 35.72919 | -5.91716 | 59 ft | 6 kts | 21° |
| 2026-05-05 19:36 | 35.72939 | -5.91659 | 55 ft | 11 kts | 89° |
| 2026-05-05 19:36 | 35.72936 | -5.91599 | 59 ft | 17 kts | 94° |
| 2026-05-05 19:36 | 35.72923 | -5.91462 | 59 ft | 24 kts | 97° |
| 2026-05-05 19:37 | 35.72906 | -5.91291 | 57 ft | 31 kts | 97° |
| 2026-05-05 19:37 | 35.72884 | -5.91061 | 54 ft | 38 kts | 96° |
| 2026-05-05 19:37 | 35.72853 | -5.90709 | 57 ft | 46 kts | 96° |
| 2026-05-05 19:37 | 35.72819 | -5.90352 | 58 ft | 34 kts | 96° |
| 2026-05-05 19:38 | 35.72874 | -5.90202 | 56 ft | 0 kts | 21° |
| 2026-05-05 19:38 | 35.72875 | -5.90202 | 56 ft | 0 kts | 21° |
| 2026-05-05 19:38 | 35.72876 | -5.90201 | 56 ft | 0 kts | 21° |
| 2026-05-05 19:38 | 35.72878 | -5.90200 | 56 ft | 0 kts | 21° |
| 2026-05-05 19:39 | 35.72884 | -5.90198 | 55 ft | 1 kts | 21° |
| 2026-05-05 19:39 | 35.72885 | -5.90197 | 55 ft | 0 kts | 21° |
| 2026-05-05 19:40 | 35.72896 | -5.90195 | 54 ft | 10 kts | 8° |
| 2026-05-05 19:41 | 35.72984 | -5.90236 | 58 ft | 1 kts | 297° |
| 2026-05-05 19:41 | 35.73001 | -5.90397 | 50 ft | 46 kts | 277° |
| 2026-05-05 19:41 | 35.73059 | -5.91008 | 53 ft | 106 kts | 277° |
| 2026-05-05 19:41 | 35.73094 | -5.91375 | 59 ft | 128 kts | 277° |
| 2026-05-05 19:42 | 35.73222 | -5.92651 | 189 ft | 166 kts | 278° |
| 2026-05-05 19:42 | 35.73368 | -5.94108 | 802 ft | 175 kts | 278° |
| 2026-05-05 19:42 | 35.73529 | -5.95636 | 1463 ft | 181 kts | 278° |
| 2026-05-05 19:42 | 35.73686 | -5.97085 | 2486 ft | 171 kts | 279° |
| 2026-05-05 19:43 | 35.73857 | -5.98647 | 2840 ft | 197 kts | 279° |
| 2026-05-05 19:43 | 35.74038 | -6.00376 | 3088 ft | 217 kts | 277° |
| 2026-05-05 19:43 | 35.73874 | -6.02277 | 3537 ft | 229 kts | 254° |
| 2026-05-05 19:43 | 35.73152 | -6.04025 | 4014 ft | 240 kts | 235° |
| 2026-05-05 19:44 | 35.72087 | -6.05275 | 4503 ft | 245 kts | 216° |
| 2026-05-05 19:44 | 35.71849 | -6.05459 | 4625 ft | 244 kts | 212° |
| 2026-05-05 19:44 | 35.70265 | -6.06146 | 5272 ft | 244 kts | 186° |
| 2026-05-05 19:44 | 35.69310 | -6.06139 | 5660 ft | 242 kts | 172° |
| 2026-05-05 19:45 | 35.67704 | -6.05456 | 6057 ft | 250 kts | 147° |